createdAt,value
2023-03-24T00:00:51.312Z,500.00
2023-03-24T00:01:50.467Z,500.00
2023-03-24T00:02:51.494Z,503.00
2023-03-24T00:05:09.627Z,500.00
2023-03-24T00:07:29.676Z,500.00
2023-03-24T00:08:29.718Z,500.00
2023-03-24T00:09:29.650Z,500.00
2023-03-24T00:10:29.646Z,500.00
2023-03-24T00:12:47.806Z,500.00
2023-03-24T00:13:48.819Z,500.00
2023-03-24T00:14:48.711Z,500.00
2023-03-24T00:15:48.722Z,500.00
2023-03-24T00:16:48.694Z,500.00
2023-03-24T00:17:48.732Z,502.00
2023-03-24T00:18:48.680Z,500.00
2023-03-24T00:19:48.678Z,504.00
2023-03-24T00:20:48.659Z,500.00
2023-03-24T00:21:48.652Z,502.00
2023-03-24T00:22:48.654Z,500.00
2023-03-24T00:23:48.637Z,501.00
2023-03-24T00:24:47.717Z,502.00
2023-03-24T00:25:48.752Z,502.00
2023-03-24T00:26:48.697Z,506.00
2023-03-24T00:27:48.739Z,508.00
2023-03-24T00:30:06.823Z,500.00
2023-03-24T00:32:25.897Z,500.00
2023-03-24T00:34:45.115Z,500.00
2023-03-24T00:37:04.091Z,500.00
2023-03-24T00:38:05.206Z,500.00
2023-03-24T00:40:23.355Z,500.00
2023-03-24T00:42:42.410Z,500.00
2023-03-24T00:43:43.373Z,500.00
2023-03-24T00:44:43.328Z,500.00
2023-03-24T00:45:53.272Z,500.00
2023-03-24T00:46:43.346Z,500.00
2023-03-24T00:47:43.455Z,500.00
2023-03-24T00:48:43.271Z,500.00
2023-03-24T00:49:43.327Z,500.00
2023-03-24T00:52:01.484Z,500.00
2023-03-24T00:54:20.660Z,500.00
2023-03-24T00:56:39.708Z,500.00
2023-03-24T00:58:58.767Z,500.00
2023-03-24T01:01:18.012Z,500.00
2023-03-24T01:02:19.059Z,500.00
2023-03-24T01:04:37.039Z,500.00
2023-03-24T01:05:38.001Z,500.00
2023-03-24T01:06:38.002Z,500.00
2023-03-24T01:08:56.091Z,500.00
2023-03-24T01:11:15.555Z,500.00
2023-03-24T01:13:34.528Z,500.00
2023-03-24T01:14:35.531Z,500.00
2023-03-24T01:15:35.443Z,500.00
2023-03-24T01:16:35.499Z,500.00
2023-03-24T01:17:35.432Z,500.00
2023-03-24T01:18:34.429Z,500.00
2023-03-24T01:19:35.400Z,503.00
2023-03-24T01:20:35.428Z,500.00
2023-03-24T01:21:35.458Z,500.00
2023-03-24T01:22:35.469Z,501.00
2023-03-24T01:25:53.133Z,500.00
2023-03-24T01:26:54.057Z,500.00
2023-03-24T01:27:54.083Z,500.00
2023-03-24T01:28:54.095Z,500.00
2023-03-24T01:29:53.158Z,500.00
2023-03-24T01:30:54.177Z,500.00
2023-03-24T01:31:54.326Z,500.00
2023-03-24T01:32:54.310Z,501.00
2023-03-24T01:33:54.254Z,503.00
2023-03-24T01:34:54.389Z,503.00
2023-03-24T01:37:12.592Z,500.00
2023-03-24T01:39:31.621Z,500.00
2023-03-24T01:41:50.863Z,500.00
2023-03-24T01:42:50.714Z,500.00
2023-03-24T01:43:51.701Z,500.00
2023-03-24T01:44:50.637Z,500.00
2023-03-24T01:45:51.786Z,500.00
2023-03-24T01:46:51.617Z,502.00
2023-03-24T01:47:51.633Z,501.00
2023-03-24T01:50:09.872Z,500.00
2023-03-24T01:51:10.754Z,500.00
2023-03-24T01:52:10.733Z,500.00
2023-03-24T01:53:10.705Z,500.00
2023-03-24T01:54:10.680Z,500.00
2023-03-24T01:55:10.679Z,500.00
2023-03-24T01:56:09.649Z,509.00
2023-03-24T01:58:28.834Z,500.00
2023-03-24T01:59:28.787Z,500.00
2023-03-24T02:00:40.776Z,500.00
2023-03-24T02:01:29.932Z,500.00
2023-03-24T02:02:29.756Z,500.00
2023-03-24T02:03:29.805Z,500.00
2023-03-24T02:04:29.810Z,500.00
2023-03-24T02:05:29.824Z,500.00
2023-03-24T02:06:29.787Z,500.00
2023-03-24T02:08:47.932Z,500.00
2023-03-24T02:10:03.795Z,500.00
2023-03-24T02:11:06.981Z,500.00
2023-03-24T02:12:07.945Z,500.00
2023-03-24T02:13:06.977Z,500.00
2023-03-24T02:14:06.921Z,500.00
2023-03-24T02:15:07.910Z,500.00
2023-03-24T02:16:07.968Z,500.00
2023-03-24T02:17:06.911Z,504.00
2023-03-24T02:18:07.995Z,504.00
2023-03-24T02:19:07.884Z,499.00
2023-03-24T02:20:08.600Z,507.00
2023-03-24T02:21:07.850Z,500.00
2023-03-24T02:22:06.861Z,502.00
2023-03-24T02:24:26.022Z,500.00
2023-03-24T02:26:45.226Z,500.00
2023-03-24T02:27:46.158Z,500.00
2023-03-24T02:28:46.108Z,500.00
2023-03-24T02:29:46.109Z,500.00
2023-03-24T02:30:46.119Z,500.00
2023-03-24T02:31:46.069Z,501.00
2023-03-24T02:33:45.009Z,500.00
2023-03-24T02:34:46.011Z,501.00
2023-03-24T02:35:45.094Z,503.00
2023-03-24T02:38:04.103Z,500.00
2023-03-24T02:39:05.112Z,500.00
2023-03-24T02:40:05.095Z,500.00
2023-03-24T02:41:05.099Z,500.00
2023-03-24T02:43:23.254Z,500.00
2023-03-24T02:44:23.165Z,500.00
2023-03-24T02:45:24.215Z,500.00
2023-03-24T02:47:42.456Z,500.00
2023-03-24T02:48:43.265Z,500.00
2023-03-24T02:49:43.262Z,500.00
2023-03-24T02:50:43.363Z,500.00
2023-03-24T02:51:43.259Z,500.00
2023-03-24T02:52:42.325Z,501.00
2023-03-24T02:53:43.249Z,499.00
2023-03-24T02:54:43.285Z,501.00
2023-03-24T02:55:56.066Z,505.00
2023-03-24T02:58:01.833Z,500.00
2023-03-24T02:59:02.595Z,500.00
2023-03-24T03:00:02.666Z,500.00
2023-03-24T03:02:20.807Z,500.00
2023-03-24T03:04:39.983Z,500.00
2023-03-24T03:05:41.122Z,500.00
2023-03-24T03:07:59.032Z,500.00
2023-03-24T03:08:59.956Z,500.00
2023-03-24T03:09:59.934Z,500.00
2023-03-24T03:12:18.146Z,500.00
2023-03-24T03:13:19.189Z,500.00
2023-03-24T03:14:19.070Z,500.00
2023-03-24T03:15:19.028Z,500.00
2023-03-24T03:17:37.223Z,500.00
2023-03-24T03:18:38.116Z,500.00
2023-03-24T03:19:38.277Z,500.00
2023-03-24T03:21:56.268Z,500.00
2023-03-24T03:22:57.248Z,500.00
2023-03-24T03:23:56.361Z,500.00
2023-03-24T03:24:56.346Z,500.00
2023-03-24T03:27:15.488Z,500.00
2023-03-24T03:28:16.455Z,500.00
2023-03-24T03:29:16.405Z,500.00
2023-03-24T03:31:34.540Z,500.00
2023-03-24T03:32:34.556Z,500.00
2023-03-24T03:34:53.650Z,500.00
2023-03-24T03:35:54.667Z,500.00
2023-03-24T03:36:54.561Z,500.00
2023-03-24T03:39:12.769Z,500.00
2023-03-24T03:41:31.825Z,500.00
2023-03-24T03:42:32.861Z,500.00
2023-03-24T03:44:50.981Z,500.00
2023-03-24T03:45:52.006Z,500.00
2023-03-24T03:46:51.900Z,500.00
2023-03-24T03:49:10.216Z,500.00
2023-03-24T03:51:29.343Z,500.00
2023-03-24T03:53:48.550Z,500.00
2023-03-24T03:54:49.377Z,500.00
2023-03-24T03:55:48.339Z,500.00
2023-03-24T03:58:32.988Z,500.00
2023-03-24T03:59:34.155Z,500.00
2023-03-24T04:01:52.291Z,500.00
2023-03-24T04:04:11.641Z,500.00
2023-03-24T04:05:12.435Z,500.00
2023-03-24T04:07:34.248Z,500.00
2023-03-24T04:09:53.370Z,500.00
2023-03-24T04:10:54.301Z,500.00
2023-03-24T04:11:54.419Z,500.00
2023-03-24T04:14:12.522Z,500.00
2023-03-24T04:16:31.633Z,500.00
2023-03-24T04:17:31.660Z,500.00
2023-03-24T04:18:32.559Z,500.00
2023-03-24T04:19:32.532Z,500.00
2023-03-24T04:20:32.509Z,500.00
2023-03-24T04:21:32.480Z,500.00
2023-03-24T04:23:50.753Z,500.00
2023-03-24T04:24:51.803Z,500.00
2023-03-24T04:25:51.881Z,500.00
2023-03-24T04:28:10.068Z,500.00
2023-03-24T04:29:11.030Z,500.00
2023-03-24T04:30:10.974Z,500.00
2023-03-24T04:31:11.056Z,500.00
2023-03-24T04:33:30.094Z,500.00
2023-03-24T04:35:49.400Z,500.00
2023-03-24T04:36:49.150Z,500.00
2023-03-24T04:37:49.208Z,500.00
2023-03-24T04:38:50.242Z,500.00
2023-03-24T04:39:50.246Z,500.00
2023-03-24T04:40:50.305Z,502.00
2023-03-24T04:41:50.374Z,500.00
2023-03-24T04:42:49.389Z,499.00
2023-03-24T04:43:50.490Z,499.00
2023-03-24T04:44:50.504Z,501.00
2023-03-24T04:47:08.702Z,500.00
2023-03-24T04:49:27.771Z,500.00
2023-03-24T04:50:28.707Z,500.00
2023-03-24T04:51:28.877Z,500.00
2023-03-24T04:53:46.932Z,500.00
2023-03-24T04:54:47.866Z,500.00
2023-03-24T04:57:06.171Z,500.00
2023-03-24T04:58:06.928Z,500.00
2023-03-24T04:59:07.072Z,500.00
2023-03-24T05:00:06.983Z,500.00
2023-03-24T05:01:06.077Z,500.00
2023-03-24T05:02:06.914Z,498.00
2023-03-24T05:03:08.829Z,500.00
2023-03-24T05:05:25.155Z,500.00
2023-03-24T05:06:26.076Z,500.00
2023-03-24T05:07:26.001Z,500.00
2023-03-24T05:08:25.983Z,500.00
2023-03-24T05:10:44.207Z,500.00
2023-03-24T05:13:03.354Z,500.00
2023-03-24T05:14:03.311Z,500.00
2023-03-24T05:15:04.299Z,500.00
2023-03-24T05:16:03.388Z,500.00
2023-03-24T05:17:04.433Z,500.00
2023-03-24T05:18:03.493Z,500.00
2023-03-24T05:20:22.642Z,500.00
2023-03-24T05:21:22.638Z,500.00
2023-03-24T05:22:23.595Z,500.00
2023-03-24T05:23:35.887Z,500.00
2023-03-24T05:24:23.619Z,500.00
2023-03-24T05:26:41.734Z,500.00
2023-03-24T05:27:42.618Z,500.00
2023-03-24T05:28:42.620Z,500.00
2023-03-24T05:29:41.620Z,500.00
2023-03-24T05:30:41.604Z,500.00
2023-03-24T05:31:41.781Z,500.00
2023-03-24T05:32:43.470Z,502.00
2023-03-24T05:33:42.624Z,502.00
2023-03-24T05:36:00.826Z,500.00
2023-03-24T05:38:19.798Z,500.00
2023-03-24T05:39:20.761Z,500.00
2023-03-24T05:40:20.950Z,500.00
2023-03-24T05:42:38.857Z,500.00
2023-03-24T05:44:57.990Z,500.00
2023-03-24T05:45:59.075Z,500.00
2023-03-24T05:46:58.022Z,500.00
2023-03-24T05:47:59.212Z,500.00
2023-03-24T05:48:58.032Z,500.00
2023-03-24T05:51:17.138Z,500.00
2023-03-24T05:52:18.044Z,500.00
2023-03-24T05:53:17.007Z,500.00
2023-03-24T05:54:18.060Z,500.00
2023-03-24T05:56:36.230Z,500.00
2023-03-24T05:57:37.186Z,500.00
2023-03-24T05:58:37.110Z,500.00
2023-03-24T05:59:37.146Z,500.00
2023-03-24T06:00:36.216Z,500.00
2023-03-24T06:02:55.374Z,500.00
2023-03-24T06:04:02.267Z,500.00
2023-03-24T06:06:55.177Z,500.00
2023-03-24T06:07:56.157Z,500.00
2023-03-24T06:13:55.099Z,500.00
2023-03-24T06:14:55.095Z,508.00
2023-03-24T06:15:56.126Z,506.00
2023-03-24T06:17:55.168Z,509.00
2023-03-24T06:18:56.408Z,504.00
2023-03-24T06:22:55.023Z,501.00
2023-03-24T06:23:55.032Z,502.00
2023-03-24T06:24:56.022Z,501.00
2023-03-24T06:29:54.978Z,504.00
2023-03-24T06:30:55.997Z,509.00
2023-03-24T06:31:56.003Z,507.00
2023-03-24T06:33:54.954Z,517.00
2023-03-24T06:34:55.947Z,522.00
2023-03-24T06:36:54.944Z,523.00
2023-03-24T06:37:55.923Z,531.00
2023-03-24T06:38:55.918Z,530.00
2023-03-24T06:42:54.892Z,546.00
2023-03-24T06:43:55.887Z,559.00
2023-03-24T06:44:55.875Z,564.00
2023-03-24T06:49:54.846Z,612.00
2023-03-24T06:50:55.824Z,623.00
2023-03-24T06:53:54.964Z,587.00
2023-03-24T06:54:55.966Z,567.00
2023-03-24T06:55:55.975Z,559.00
2023-03-24T06:56:56.116Z,564.00
2023-03-24T06:57:56.055Z,530.00
2023-03-24T06:58:56.061Z,515.00
2023-03-24T07:01:55.112Z,510.00
2023-03-24T07:02:56.532Z,505.00
2023-03-24T07:07:06.636Z,517.00
2023-03-24T07:08:55.205Z,518.00
2023-03-24T07:09:56.248Z,519.00
2023-03-24T07:10:56.189Z,523.00
2023-03-24T07:11:56.940Z,526.00
2023-03-24T07:15:55.132Z,539.00
2023-03-24T07:16:55.148Z,534.00
2023-03-24T07:17:56.185Z,518.00
2023-03-24T07:18:55.131Z,532.00
2023-03-24T07:19:56.092Z,533.00
2023-03-24T07:21:55.069Z,539.00
2023-03-24T07:22:56.066Z,526.00
2023-03-24T07:23:56.080Z,520.00
2023-03-24T07:24:55.059Z,521.00
2023-03-24T07:25:56.062Z,524.00
2023-03-24T07:28:55.024Z,560.00
2023-03-24T07:30:55.609Z,569.00
2023-03-24T07:31:56.118Z,580.00
2023-03-24T07:32:56.166Z,584.00
2023-03-24T07:35:55.181Z,597.00
2023-03-24T07:36:56.134Z,600.00
2023-03-24T07:37:56.180Z,611.00
2023-03-24T07:38:56.153Z,605.00
2023-03-24T07:39:56.192Z,634.00
2023-03-24T07:40:55.215Z,628.00
2023-03-24T07:41:56.216Z,647.00
2023-03-24T07:42:56.224Z,645.00
2023-03-24T07:43:56.374Z,654.00
2023-03-24T07:45:55.419Z,665.00
2023-03-24T07:46:56.453Z,668.00
2023-03-24T07:47:56.565Z,687.00
2023-03-24T07:48:59.435Z,698.00
2023-03-24T07:51:55.540Z,736.00
2023-03-24T07:52:59.478Z,754.00
2023-03-24T07:53:55.545Z,701.00
2023-03-24T07:54:56.530Z,710.00
2023-03-24T07:57:55.944Z,762.00
2023-03-24T07:58:56.538Z,761.00
2023-03-24T08:03:55.597Z,907.00
2023-03-24T08:04:55.444Z,905.00
2023-03-24T08:05:56.461Z,918.00
2023-03-24T08:06:56.462Z,908.00
2023-03-24T08:07:56.477Z,903.00
2023-03-24T08:08:55.770Z,936.00
2023-03-24T08:09:56.588Z,963.00
2023-03-24T08:12:55.407Z,964.00
2023-03-24T08:16:55.392Z,937.00
2023-03-24T08:17:56.603Z,981.00
2023-03-24T08:18:56.369Z,963.00
2023-03-24T08:20:00.210Z,950.00
2023-03-24T08:20:56.423Z,952.00
2023-03-24T08:21:56.474Z,956.00
2023-03-24T08:22:56.893Z,967.00
2023-03-24T08:25:55.669Z,1034.00
2023-03-24T08:26:56.720Z,1076.00
2023-03-24T08:27:56.792Z,1078.00
2023-03-24T08:28:56.913Z,1077.00
2023-03-24T08:29:56.909Z,1103.00
2023-03-24T08:30:56.972Z,1124.00
2023-03-24T08:35:56.296Z,1204.00
2023-03-24T08:36:57.321Z,1206.00
2023-03-24T08:37:57.388Z,1201.00
2023-03-24T08:39:56.474Z,1249.00
2023-03-24T08:40:57.532Z,1250.00
2023-03-24T08:41:57.577Z,1288.00
2023-03-24T08:42:57.680Z,1298.00
2023-03-24T08:43:57.682Z,1318.00
2023-03-24T08:44:57.736Z,1318.00
2023-03-24T08:45:57.852Z,1316.00
2023-03-24T08:46:57.844Z,1343.00
2023-03-24T08:47:58.013Z,1350.00
2023-03-24T08:48:56.945Z,1355.00
2023-03-24T08:49:57.982Z,1359.00
2023-03-24T08:50:58.036Z,1377.00
2023-03-24T08:51:58.085Z,1400.00
2023-03-24T08:52:58.463Z,1396.00
2023-03-24T08:53:58.285Z,1394.00
2023-03-24T08:56:57.394Z,1381.00
2023-03-24T08:57:58.409Z,1388.00
2023-03-24T08:59:57.524Z,1380.00
2023-03-24T09:00:57.564Z,1354.00
2023-03-24T09:01:57.622Z,1351.00
2023-03-24T09:02:57.635Z,1351.00
2023-03-24T09:03:57.636Z,1356.00
2023-03-24T09:04:57.686Z,1364.00
2023-03-24T09:05:57.863Z,1350.00
2023-03-24T09:06:59.004Z,1341.00
2023-03-24T09:07:58.624Z,1324.00
2023-03-24T09:08:58.610Z,1342.00
2023-03-24T09:12:57.622Z,1317.00
2023-03-24T09:13:58.634Z,1310.00
2023-03-24T09:14:57.651Z,1325.00
2023-03-24T09:15:58.667Z,1310.00
2023-03-24T09:16:58.681Z,1314.00
2023-03-24T09:17:58.750Z,1315.00
2023-03-24T09:21:57.714Z,1292.00
2023-03-24T09:22:58.729Z,1307.00
2023-03-24T09:23:58.757Z,1299.00
2023-03-24T09:25:57.828Z,1314.00
2023-03-24T09:26:58.806Z,1285.00
2023-03-24T09:29:57.859Z,1307.00
2023-03-24T09:30:58.897Z,1314.00
2023-03-24T09:31:58.878Z,1303.00
2023-03-24T09:32:59.090Z,1311.00
2023-03-24T09:33:58.961Z,1294.00
2023-03-24T09:34:58.968Z,1289.00
2023-03-24T09:38:58.108Z,1226.00
2023-03-24T09:39:59.110Z,1241.00
2023-03-24T09:40:59.135Z,1259.00
2023-03-24T09:41:59.205Z,1264.00
2023-03-24T09:42:59.191Z,1319.00
2023-03-24T09:43:59.475Z,1339.00
2023-03-24T09:46:58.235Z,1059.00
2023-03-24T09:47:59.271Z,903.00
2023-03-24T09:50:58.373Z,629.00
2023-03-24T09:53:58.451Z,522.00
2023-03-24T09:54:59.521Z,505.00
2023-03-24T09:55:59.569Z,509.00
2023-03-24T09:56:59.627Z,511.00
2023-03-24T09:59:58.701Z,505.00
2023-03-24T10:00:59.771Z,502.00
2023-03-24T10:02:58.739Z,513.00
2023-03-24T10:03:59.962Z,516.00
2023-03-24T10:05:58.878Z,520.00
2023-03-24T10:06:59.964Z,522.00
2023-03-24T10:07:59.000Z,520.00
2023-03-24T10:09:00.048Z,529.00
2023-03-24T10:10:00.202Z,527.00
2023-03-24T10:11:59.190Z,529.00
2023-03-24T10:13:00.241Z,527.00
2023-03-24T10:14:01.563Z,532.00
2023-03-24T10:15:00.260Z,544.00
2023-03-24T10:16:00.293Z,543.00
2023-03-24T10:17:00.249Z,547.00
2023-03-24T10:18:00.320Z,534.00
2023-03-24T10:20:59.255Z,545.00
2023-03-24T10:22:00.216Z,542.00
2023-03-24T10:23:00.200Z,548.00
2023-03-24T10:23:59.204Z,554.00
2023-03-24T10:25:59.210Z,557.00
2023-03-24T10:27:00.183Z,557.00
2023-03-24T10:28:00.188Z,561.00
2023-03-24T10:29:00.184Z,549.00
2023-03-24T10:30:00.220Z,542.00
2023-03-24T10:31:00.273Z,547.00
2023-03-24T10:33:59.183Z,570.00
2023-03-24T10:35:00.137Z,560.00
2023-03-24T10:36:00.227Z,576.00
2023-03-24T10:37:00.144Z,583.00
2023-03-24T10:39:59.093Z,572.00
2023-03-24T10:41:00.111Z,581.00
2023-03-24T10:42:00.152Z,587.00
2023-03-24T10:43:59.256Z,574.00
2023-03-24T10:45:00.304Z,576.00
2023-03-24T10:46:00.393Z,570.00
2023-03-24T10:47:00.426Z,586.00
2023-03-24T10:49:59.570Z,590.00
2023-03-24T10:51:00.612Z,612.00
2023-03-24T10:52:59.688Z,593.00
2023-03-24T10:54:02.931Z,606.00
2023-03-24T10:56:59.797Z,632.00
2023-03-24T10:58:00.653Z,643.00
2023-03-24T10:59:59.725Z,658.00
2023-03-24T11:01:00.714Z,665.00
2023-03-24T11:02:00.726Z,679.00
2023-03-24T11:03:59.679Z,759.00
2023-03-24T11:05:00.605Z,820.00
2023-03-24T11:07:01.394Z,894.00
2023-03-24T11:07:59.622Z,949.00
2023-03-24T11:09:00.629Z,967.00
2023-03-24T11:10:59.564Z,1014.00
2023-03-24T11:13:59.562Z,1077.00
2023-03-24T11:15:10.416Z,1093.00
2023-03-24T11:16:00.526Z,1095.00
2023-03-24T11:17:59.701Z,1122.00
2023-03-24T11:19:00.509Z,1147.00
2023-03-24T11:20:00.501Z,1189.00
2023-03-24T11:21:59.472Z,1224.00
2023-03-24T11:23:00.469Z,1236.00
2023-03-24T11:25:59.455Z,1283.00
2023-03-24T11:27:00.454Z,1302.00
2023-03-24T11:28:59.448Z,1318.00
2023-03-24T11:30:00.428Z,1343.00
2023-03-24T11:33:59.424Z,1404.00
2023-03-24T11:35:00.386Z,1408.00
2023-03-24T11:36:05.469Z,1417.00
2023-03-24T11:37:00.418Z,1419.00
2023-03-24T11:38:00.370Z,1427.00
2023-03-24T11:39:00.384Z,1438.00
2023-03-24T11:43:59.332Z,1482.00
2023-03-24T11:45:00.324Z,1475.00
2023-03-24T11:46:00.371Z,1463.00
2023-03-24T11:47:00.333Z,1478.00
2023-03-24T11:48:00.308Z,1469.00
2023-03-24T11:49:00.297Z,1458.00
2023-03-24T11:50:00.320Z,1464.00
2023-03-24T11:52:59.297Z,1440.00
2023-03-24T11:54:00.281Z,1427.00
2023-03-24T11:55:00.236Z,1429.00
2023-03-24T11:56:00.244Z,1423.00
2023-03-24T11:57:59.239Z,1405.00
2023-03-24T11:59:00.234Z,1386.00
2023-03-24T12:00:00.220Z,1387.00
2023-03-24T12:01:00.218Z,1375.00
2023-03-24T12:02:59.268Z,1373.00
2023-03-24T12:04:00.382Z,1389.00
2023-03-24T12:05:00.187Z,1366.00
2023-03-24T12:06:00.255Z,1365.00
2023-03-24T12:07:00.161Z,1358.00
2023-03-24T12:07:59.151Z,1347.00
2023-03-24T12:09:59.129Z,1314.00
2023-03-24T12:11:00.141Z,1311.00
2023-03-24T12:12:59.123Z,1261.00
2023-03-24T12:14:00.119Z,1246.00
2023-03-24T12:15:00.135Z,1226.00
2023-03-24T12:16:00.160Z,1239.00
2023-03-24T12:16:59.084Z,1218.00
2023-03-24T12:18:00.209Z,1213.00
2023-03-24T12:19:59.075Z,1182.00
2023-03-24T12:21:00.068Z,1175.00
2023-03-24T12:22:00.117Z,1163.00
2023-03-24T12:23:00.051Z,1163.00
2023-03-24T12:24:00.062Z,1171.00
2023-03-24T12:25:00.538Z,1155.00
2023-03-24T12:26:00.021Z,1166.00
2023-03-24T12:28:59.016Z,1160.00
2023-03-24T12:29:59.998Z,1129.00
2023-03-24T12:31:58.969Z,1117.00
2023-03-24T12:33:00.036Z,1136.00
2023-03-24T12:34:58.971Z,1102.00
2023-03-24T12:36:00.081Z,1092.00
2023-03-24T12:36:59.979Z,1081.00
2023-03-24T12:38:00.042Z,1106.00
2023-03-24T12:39:00.046Z,1102.00
2023-03-24T12:42:59.168Z,1014.00
2023-03-24T12:43:59.154Z,1023.00
2023-03-24T12:45:00.211Z,1027.00
2023-03-24T12:46:59.234Z,1012.00
2023-03-24T12:48:00.383Z,1018.00
2023-03-24T12:49:00.274Z,1015.00
2023-03-24T12:50:00.298Z,1036.00
2023-03-24T12:51:00.326Z,1034.00
2023-03-24T12:52:00.336Z,1057.00
2023-03-24T12:53:07.608Z,1023.00
2023-03-24T12:54:00.370Z,1025.00
2023-03-24T12:55:00.347Z,1028.00
2023-03-24T12:55:59.330Z,1041.00
2023-03-24T12:57:00.368Z,1031.00
2023-03-24T12:58:59.313Z,1055.00
2023-03-24T13:02:59.351Z,1052.00
2023-03-24T13:04:00.270Z,1037.00
2023-03-24T13:05:00.269Z,1059.00
2023-03-24T13:06:10.932Z,1064.00
2023-03-24T13:07:59.347Z,1070.00
2023-03-24T13:09:00.248Z,1074.00
2023-03-24T13:10:00.267Z,1087.00
2023-03-24T13:12:59.218Z,1078.00
2023-03-24T13:14:00.205Z,1059.00
2023-03-24T13:14:59.213Z,1079.00
2023-03-24T13:16:00.185Z,1069.00
2023-03-24T13:19:59.146Z,1094.00
2023-03-24T13:20:59.148Z,1092.00
2023-03-24T13:22:00.136Z,1098.00
2023-03-24T13:24:18.169Z,500.00
2023-03-24T13:25:19.177Z,500.00
2023-03-24T13:26:18.147Z,500.00
2023-03-24T13:28:18.146Z,500.00
2023-03-24T13:29:19.130Z,500.00
2023-03-24T13:30:19.129Z,500.00
2023-03-24T13:31:19.140Z,504.00
2023-03-24T13:33:18.101Z,506.00
2023-03-24T13:34:19.109Z,499.00
2023-03-24T13:38:18.062Z,503.00
2023-03-24T13:39:19.069Z,515.00
2023-03-24T13:40:19.041Z,508.00
2023-03-24T13:41:19.075Z,501.00
2023-03-24T13:44:18.143Z,504.00
2023-03-24T13:48:37.032Z,500.00
2023-03-24T13:49:38.026Z,500.00
2023-03-24T13:50:38.026Z,500.00
2023-03-24T13:52:37.031Z,500.00
2023-03-24T13:53:38.012Z,500.00
2023-03-24T13:54:36.994Z,501.00
2023-03-24T13:55:37.981Z,509.00
2023-03-24T13:56:38.020Z,498.00
2023-03-24T14:00:36.947Z,515.00
2023-03-24T14:01:38.118Z,515.00
2023-03-24T14:02:38.078Z,517.00
2023-03-24T14:04:36.931Z,521.00
2023-03-24T14:05:37.914Z,518.00
2023-03-24T14:06:37.898Z,509.00
2023-03-24T14:10:36.871Z,511.00
2023-03-24T14:11:37.896Z,512.00
2023-03-24T14:12:37.920Z,517.00
2023-03-24T14:15:36.844Z,512.00
2023-03-24T14:16:37.826Z,505.00
2023-03-24T14:17:37.808Z,516.00
2023-03-24T14:19:36.883Z,516.00
2023-03-24T14:20:37.788Z,513.00
2023-03-24T14:21:37.793Z,510.00
2023-03-24T14:22:37.785Z,509.00
2023-03-24T14:25:36.790Z,509.00
2023-03-24T14:26:37.749Z,507.00
2023-03-24T14:28:36.780Z,520.00
2023-03-24T14:29:37.783Z,525.00
2023-03-24T14:33:36.708Z,524.00
2023-03-24T14:34:37.702Z,520.00
2023-03-24T14:35:37.732Z,509.00
2023-03-24T14:36:37.686Z,507.00
2023-03-24T14:37:37.673Z,523.00
2023-03-24T14:38:37.679Z,519.00
2023-03-24T14:40:36.677Z,507.00
2023-03-24T14:41:37.644Z,511.00
2023-03-24T14:42:36.661Z,512.00
2023-03-24T14:46:36.666Z,510.00
2023-03-24T14:47:37.644Z,512.00
2023-03-24T14:50:36.693Z,515.00
2023-03-24T14:51:37.739Z,508.00
2023-03-24T14:52:39.007Z,508.00
2023-03-24T14:53:36.754Z,505.00
2023-03-24T14:54:37.752Z,515.00
2023-03-24T14:57:36.719Z,516.00
2023-03-24T14:58:37.714Z,512.00
2023-03-24T14:59:37.696Z,521.00
2023-03-24T15:00:37.733Z,518.00
2023-03-24T15:03:36.695Z,520.00
2023-03-24T15:04:37.669Z,522.00
2023-03-24T15:05:37.665Z,526.00
2023-03-24T15:08:36.643Z,514.00
2023-03-24T15:09:37.628Z,504.00
2023-03-24T15:11:36.621Z,522.00
2023-03-24T15:12:37.630Z,523.00
2023-03-24T15:13:37.606Z,525.00
2023-03-24T15:14:37.598Z,514.00
2023-03-24T15:18:40.305Z,523.00
2023-03-24T15:19:37.576Z,524.00
2023-03-24T15:20:37.549Z,524.00
2023-03-24T15:23:36.530Z,518.00
2023-03-24T15:24:37.511Z,519.00
2023-03-24T15:25:37.524Z,507.00
2023-03-24T15:26:37.554Z,524.00
2023-03-24T15:27:37.506Z,513.00
2023-03-24T15:28:37.495Z,529.00
2023-03-24T15:33:36.457Z,522.00
2023-03-24T15:34:36.455Z,523.00
2023-03-24T15:35:36.499Z,523.00
2023-03-24T15:36:37.467Z,513.00
2023-03-24T15:37:39.380Z,520.00
2023-03-24T15:41:36.502Z,522.00
2023-03-24T15:42:36.481Z,526.00
2023-03-24T15:43:37.471Z,521.00
2023-03-24T15:44:36.455Z,530.00
2023-03-24T15:45:37.474Z,526.00
2023-03-24T15:48:36.436Z,524.00
2023-03-24T15:49:37.425Z,528.00
2023-03-24T15:50:37.442Z,522.00
2023-03-24T15:54:36.385Z,525.00
2023-03-24T15:55:37.405Z,525.00
2023-03-24T15:57:36.345Z,520.00
2023-03-24T15:58:37.358Z,519.00
2023-03-24T15:59:37.351Z,520.00
2023-03-24T16:00:37.338Z,517.00
2023-03-24T16:03:36.412Z,515.00
2023-03-24T16:04:37.459Z,512.00
2023-03-24T16:05:37.488Z,513.00
2023-03-24T16:06:37.538Z,509.00
2023-03-24T16:07:37.603Z,512.00
2023-03-24T16:08:37.642Z,512.00
2023-03-24T16:09:37.662Z,509.00
2023-03-24T16:10:37.747Z,507.00
2023-03-24T16:11:37.755Z,506.00
2023-03-24T16:12:37.812Z,510.00
2023-03-24T16:13:37.871Z,509.00
2023-03-24T16:14:37.933Z,508.00
2023-03-24T16:15:37.964Z,506.00
2023-03-24T16:16:38.130Z,509.00
2023-03-24T16:17:38.122Z,509.00
2023-03-24T16:18:37.102Z,507.00
2023-03-24T16:19:38.146Z,505.00
2023-03-24T16:20:38.246Z,505.00
2023-03-24T16:21:38.271Z,505.00
2023-03-24T16:22:38.316Z,507.00
2023-03-24T16:23:38.353Z,507.00
2023-03-24T16:26:37.518Z,511.00
2023-03-24T16:27:38.571Z,510.00
2023-03-24T16:29:37.670Z,502.00
2023-03-24T16:30:53.742Z,507.00
2023-03-24T16:31:56.780Z,500.00
2023-03-24T16:32:57.815Z,500.00
2023-03-24T16:33:58.276Z,500.00
2023-03-24T16:34:57.773Z,500.00
2023-03-24T16:35:57.797Z,500.00
2023-03-24T16:36:57.750Z,500.00
2023-03-24T16:37:57.755Z,500.00
2023-03-24T16:38:57.740Z,502.00
2023-03-24T16:39:56.707Z,502.00
2023-03-24T16:40:57.754Z,502.00
2023-03-24T16:41:57.712Z,501.00
2023-03-24T16:42:57.687Z,502.00
2023-03-24T16:43:57.689Z,500.00
2023-03-24T16:44:57.704Z,503.00
2023-03-24T16:45:57.763Z,501.00
2023-03-24T16:46:57.701Z,500.00
2023-03-24T16:47:56.693Z,507.00
2023-03-24T16:48:57.651Z,504.00
2023-03-24T16:49:56.649Z,508.00
2023-03-24T16:50:57.676Z,504.00
2023-03-24T16:51:56.729Z,502.00
2023-03-24T16:52:57.756Z,502.00
2023-03-24T16:53:57.860Z,501.00
2023-03-24T16:54:57.946Z,501.00
2023-03-24T16:55:57.918Z,500.00
2023-03-24T16:56:58.020Z,508.00
2023-03-24T16:57:58.029Z,508.00
2023-03-24T16:58:58.077Z,501.00
2023-03-24T16:59:57.171Z,501.00
2023-03-24T17:00:57.201Z,500.00
2023-03-24T17:01:58.323Z,503.00
2023-03-24T17:02:58.388Z,501.00
2023-03-24T17:03:58.381Z,504.00
2023-03-24T17:04:58.442Z,502.00
2023-03-24T17:05:58.460Z,500.00
2023-03-24T17:06:58.553Z,504.00
2023-03-24T17:07:58.656Z,500.00
2023-03-24T17:08:58.643Z,506.00
2023-03-24T17:09:57.685Z,501.00
2023-03-24T17:10:58.739Z,502.00
2023-03-24T17:11:58.803Z,503.00
2023-03-24T17:12:58.872Z,507.00
2023-03-24T17:13:58.971Z,503.00
2023-03-24T17:14:58.990Z,502.00
2023-03-24T17:15:58.085Z,502.00
2023-03-24T17:16:58.107Z,505.00
2023-03-24T17:17:59.200Z,506.00
2023-03-24T17:18:58.268Z,503.00
2023-03-24T17:19:59.334Z,503.00
2023-03-24T17:20:59.340Z,507.00
2023-03-24T17:21:59.441Z,507.00
2023-03-24T17:22:59.475Z,508.00
2023-03-24T17:23:59.526Z,509.00
2023-03-24T17:24:59.562Z,502.00
2023-03-24T17:25:59.629Z,506.00
2023-03-24T17:26:58.692Z,503.00
2023-03-24T17:27:58.845Z,500.00
2023-03-24T17:28:59.829Z,508.00
2023-03-24T17:29:58.880Z,501.00
2023-03-24T17:30:59.962Z,508.00
2023-03-24T17:32:00.043Z,508.00